Time;durP1;ratioP1;P1;durP2;ratioP2;P2;SDS_P1;SDS_P2;PMS_P1;PMS_P2;Temp;Humidity;BMP_temperature;BMP_pressure;BME280_temperature;BME280_humidity;BME280_pressure;Samples;Min_cycle;Max_cycle;Signal;HPM_P1;HPM_P2
2021/12/30 00:02:24;;;;;;;10.77;6.63;;;;;;;;;;5008589;28;20057;-85
2021/12/30 00:04:50;;;;;;;11.40;7.85;;;;;;;;;;5015105;28;20026;-85
2021/12/30 00:07:16;;;;;;;16.30;11.30;;;;;;;;;;5017202;28;20057;-84
2021/12/30 00:09:42;;;;;;;29.35;21.92;;;;;;;;;;5015216;28;20104;-85
2021/12/30 00:12:08;;;;;;;34.92;24.88;;;;;;;;;;5015647;28;20057;-84
2021/12/30 00:14:34;;;;;;;45.53;29.77;;;;;;;;;;5015595;28;20026;-85
2021/12/30 00:17:00;;;;;;;31.35;24.42;;;;;;;;;;5015738;28;20361;-85
2021/12/30 00:19:26;;;;;;;32.85;25.20;;;;;;;;;;5015199;28;20119;-85
2021/12/30 00:21:52;;;;;;;35.60;27.75;;;;;;;;;;5016924;28;20033;-85
2021/12/30 00:24:18;;;;;;;28.90;21.58;;;;;;;;;;5014830;28;20125;-85
2021/12/30 00:26:44;;;;;;;26.85;21.27;;;;;;;;;;5016651;28;20061;-85
2021/12/30 00:29:10;;;;;;;27.98;22.83;;;;;;;;;;5016325;28;20041;-85
2021/12/30 00:31:36;;;;;;;29.33;23.25;;;;;;;;;;5016590;28;20034;-85
2021/12/30 00:34:02;;;;;;;27.67;23.63;;;;;;;;;;5014950;28;20077;-85
2021/12/30 00:36:28;;;;;;;38.05;27.63;;;;;;;;;;5015007;28;20041;-85
2021/12/30 00:38:54;;;;;;;28.38;24.23;;;;;;;;;;5009266;28;20061;-85
2021/12/30 00:41:20;;;;;;;25.33;20.35;;;;;;;;;;5014510;28;20399;-85
2021/12/30 00:43:47;;;;;;;33.80;26.80;;;;;;;;;;5014427;28;20049;-85
2021/12/30 00:46:13;;;;;;;24.42;20.48;;;;;;;;;;5015088;28;20091;-85
2021/12/30 00:48:41;;;;;;;20.25;12.82;;;;;;;;;;5011120;28;20034;-85
2021/12/30 00:51:07;;;;;;;11.82;8.70;;;;;;;;;;4996243;28;20566;-85
2021/12/30 00:53:34;;;;;;;12.00;7.97;;;;;;;;;;4997473;28;20034;-85
2021/12/30 00:56:00;;;;;;;11.75;8.05;;;;;;;;;;5014222;28;20037;-85
2021/12/30 00:58:26;;;;;;;10.27;6.93;;;;;;;;;;5015431;28;20062;-84
2021/12/30 01:00:54;;;;;;;10.10;6.57;;;;;;;;;;5014278;28;20099;-85
2021/12/30 01:03:20;;;;;;;9.93;5.70;;;;;;;;;;5015273;28;20030;-85
2021/12/30 01:05:47;;;;;;;10.18;7.45;;;;;;;;;;5013924;28;20037;-85
2021/12/30 01:08:13;;;;;;;12.70;8.15;;;;;;;;;;5015557;28;20041;-85
2021/12/30 01:10:40;;;;;;;14.60;11.13;;;;;;;;;;5013895;28;20025;-85
2021/12/30 01:13:08;;;;;;;11.75;9.18;;;;;;;;;;5014259;28;20472;-85
2021/12/30 01:15:48;;;;;;;16.30;10.77;;;;;;;;;;5014721;28;20137;-85
2021/12/30 01:18:27;;;;;;;14.43;9.77;;;;;;;;;;5014402;28;20061;-85
2021/12/30 01:20:54;;;;;;;16.55;11.13;;;;;;;;;;5014142;28;20486;-85
2021/12/30 01:23:20;;;;;;;13.85;10.98;;;;;;;;;;5014474;28;20068;-85
2021/12/30 01:25:46;;;;;;;13.05;9.10;;;;;;;;;;5015692;28;20033;-85
2021/12/30 01:28:12;;;;;;;15.60;11.77;;;;;;;;;;5015789;28;20061;-85
2021/12/30 01:30:38;;;;;;;16.08;9.90;;;;;;;;;;5015379;28;20104;-86
2021/12/30 01:33:04;;;;;;;14.38;10.63;;;;;;;;;;5014358;28;20034;-85
2021/12/30 01:35:30;;;;;;;15.57;13.07;;;;;;;;;;5013796;28;20040;-86
2021/12/30 01:38:00;;;;;;;16.85;12.15;;;;;;;;;;5014118;28;20029;-86
2021/12/30 01:40:26;;;;;;;15.38;12.50;;;;;;;;;;5014378;28;20472;-85
2021/12/30 01:42:52;;;;;;;15.00;11.45;;;;;;;;;;5015316;28;20037;-85
2021/12/30 01:45:18;;;;;;;21.55;15.23;;;;;;;;;;5019547;28;20066;-85
2021/12/30 01:47:51;;;;;;;19.00;12.77;;;;;;;;;;5034094;28;20415;-85
2021/12/30 01:50:18;;;;;;;17.40;13.32;;;;;;;;;;5029462;28;20034;-85
2021/12/30 01:52:44;;;;;;;18.25;14.55;;;;;;;;;;5013865;28;20054;-85
2021/12/30 01:55:11;;;;;;;23.17;16.63;;;;;;;;;;5012259;28;20088;-85
2021/12/30 01:57:37;;;;;;;22.23;15.82;;;;;;;;;;4994491;28;20038;-85
2021/12/30 02:00:05;;;;;;;18.48;15.25;;;;;;;;;;4994206;28;20421;-85
2021/12/30 02:02:31;;;;;;;16.83;12.70;;;;;;;;;;4994055;28;20366;-85
2021/12/30 02:04:57;;;;;;;16.95;11.52;;;;;;;;;;4995198;28;20812;-85
2021/12/30 02:07:23;;;;;;;12.60;9.95;;;;;;;;;;5011825;28;20065;-85
2021/12/30 02:09:50;;;;;;;9.93;7.03;;;;;;;;;;5013230;28;20034;-85
2021/12/30 02:12:16;;;;;;;11.68;6.93;;;;;;;;;;5013520;28;20709;-86
2021/12/30 02:14:42;;;;;;;12.07;7.88;;;;;;;;;;5013717;28;20038;-85
2021/12/30 02:17:08;;;;;;;14.73;9.63;;;;;;;;;;5012914;28;20040;-85
2021/12/30 02:19:35;;;;;;;12.52;8.77;;;;;;;;;;5009431;28;20045;-85
2021/12/30 02:22:01;;;;;;;10.00;6.57;;;;;;;;;;5013607;28;20121;-86
2021/12/30 02:24:27;;;;;;;9.50;6.03;;;;;;;;;;5014548;28;20029;-85
2021/12/30 02:26:53;;;;;;;9.95;7.00;;;;;;;;;;5013273;28;20042;-85
2021/12/30 02:29:19;;;;;;;9.68;6.70;;;;;;;;;;5013336;28;20034;-86
2021/12/30 02:31:46;;;;;;;12.82;8.10;;;;;;;;;;5013065;28;20483;-85
2021/12/30 02:34:12;;;;;;;13.07;9.15;;;;;;;;;;4997318;28;20708;-86
2021/12/30 02:36:39;;;;;;;16.33;9.77;;;;;;;;;;5012718;28;20052;-85
2021/12/30 02:39:10;;;;;;;15.85;12.68;;;;;;;;;;5009121;28;20465;-85
2021/12/30 02:41:38;;;;;;;18.38;11.15;;;;;;;;;;4994501;28;20038;-85
2021/12/30 02:44:05;;;;;;;10.82;6.95;;;;;;;;;;5009161;28;20499;-85
2021/12/30 02:46:32;;;;;;;12.80;9.35;;;;;;;;;;5014129;28;20025;-85
2021/12/30 02:48:59;;;;;;;15.48;10.02;;;;;;;;;;5012175;28;20042;-86
2021/12/30 02:51:26;;;;;;;13.80;10.43;;;;;;;;;;5012560;28;20025;-86
2021/12/30 02:53:52;;;;;;;15.68;11.90;;;;;;;;;;5012398;28;20429;-86
2021/12/30 02:56:19;;;;;;;19.10;12.60;;;;;;;;;;5012479;28;20022;-85
2021/12/30 02:58:45;;;;;;;21.27;15.07;;;;;;;;;;5012399;28;20026;-85
2021/12/30 03:01:11;;;;;;;21.08;15.85;;;;;;;;;;5012377;28;20072;-85
2021/12/30 03:03:37;;;;;;;20.13;13.02;;;;;;;;;;5011970;28;20358;-86
2021/12/30 03:06:05;;;;;;;17.15;10.88;;;;;;;;;;5014087;28;20034;-85
2021/12/30 03:08:31;;;;;;;17.67;11.52;;;;;;;;;;5010531;28;20031;-85
2021/12/30 03:10:58;;;;;;;12.63;9.07;;;;;;;;;;4992711;28;20034;-85
2021/12/30 03:13:34;;;;;;;10.52;8.68;;;;;;;;;;4992592;28;20030;-85
2021/12/30 03:16:12;;;;;;;12.52;9.25;;;;;;;;;;4993350;28;20469;-85
2021/12/30 03:18:38;;;;;;;10.55;8.50;;;;;;;;;;4993605;28;20037;-85
2021/12/30 03:21:06;;;;;;;18.75;10.43;;;;;;;;;;5013236;28;20037;-85
2021/12/30 03:23:32;;;;;;;17.33;12.35;;;;;;;;;;5012404;28;20030;-85
2021/12/30 03:25:58;;;;;;;13.65;10.18;;;;;;;;;;5012205;28;20038;-85
2021/12/30 03:28:24;;;;;;;15.57;8.07;;;;;;;;;;5012565;28;20065;-85
2021/12/30 03:30:51;;;;;;;10.52;7.75;;;;;;;;;;5012352;28;20030;-86
2021/12/30 03:33:17;;;;;;;10.05;7.22;;;;;;;;;;5012227;28;20030;-86
2021/12/30 03:35:43;;;;;;;10.23;7.20;;;;;;;;;;5011833;28;20096;-85
2021/12/30 03:38:09;;;;;;;10.63;7.28;;;;;;;;;;5012126;28;20469;-85
2021/12/30 03:40:35;;;;;;;10.73;7.32;;;;;;;;;;5015643;28;20045;-85
2021/12/30 03:43:01;;;;;;;14.48;9.45;;;;;;;;;;5015945;28;20030;-85
2021/12/30 03:45:28;;;;;;;20.10;12.77;;;;;;;;;;5015723;28;20068;-85
2021/12/30 03:47:54;;;;;;;16.00;11.18;;;;;;;;;;5016381;28;20062;-85
2021/12/30 03:50:24;;;;;;;16.05;11.10;;;;;;;;;;5015980;28;20045;-85
2021/12/30 03:52:54;;;;;;;15.85;11.80;;;;;;;;;;5017351;28;20050;-85
2021/12/30 03:55:21;;;;;;;16.23;12.00;;;;;;;;;;5016134;28;20030;-85
2021/12/30 03:57:47;;;;;;;14.18;9.95;;;;;;;;;;5016422;28;20026;-85
2021/12/30 04:00:14;;;;;;;10.68;6.05;;;;;;;;;;5016357;28;20483;-85
2021/12/30 04:02:41;;;;;;;9.93;6.88;;;;;;;;;;5017965;28;20033;-85
2021/12/30 04:05:07;;;;;;;11.10;5.85;;;;;;;;;;5016168;28;20388;-85
2021/12/30 04:07:34;;;;;;;9.93;6.97;;;;;;;;;;5016695;28;20029;-85
2021/12/30 04:10:00;;;;;;;8.93;5.43;;;;;;;;;;5016035;28;20034;-85
2021/12/30 04:12:26;;;;;;;14.30;7.25;;;;;;;;;;5000387;28;20476;-85
2021/12/30 04:14:52;;;;;;;11.55;8.30;;;;;;;;;;5015851;28;20034;-85
2021/12/30 04:17:18;;;;;;;15.80;9.80;;;;;;;;;;5003266;28;20498;-85
2021/12/30 04:19:44;;;;;;;15.27;11.32;;;;;;;;;;5016880;28;20034;-85
2021/12/30 04:22:14;;;;;;;13.60;9.60;;;;;;;;;;5017388;28;20026;-85
2021/12/30 04:24:40;;;;;;;13.98;8.60;;;;;;;;;;5016103;28;20044;-85
2021/12/30 04:27:06;;;;;;;11.70;7.03;;;;;;;;;;5017312;28;20065;-85
2021/12/30 04:29:32;;;;;;;11.73;9.00;;;;;;;;;;5015750;28;20042;-85
2021/12/30 04:31:59;;;;;;;8.05;5.63;;;;;;;;;;5016622;28;20026;-85
2021/12/30 04:34:25;;;;;;;8.30;5.90;;;;;;;;;;5017000;28;20103;-85
2021/12/30 04:36:53;;;;;;;8.68;5.30;;;;;;;;;;5016615;28;20054;-85
2021/12/30 04:39:19;;;;;;;10.48;5.70;;;;;;;;;;5015029;28;20029;-85
2021/12/30 04:41:45;;;;;;;10.32;7.10;;;;;;;;;;5014924;28;20037;-85
2021/12/30 04:44:11;;;;;;;11.18;6.85;;;;;;;;;;5015165;28;20038;-85
2021/12/30 04:46:38;;;;;;;12.57;7.10;;;;;;;;;;5015847;28;20034;-85
2021/12/30 04:49:04;;;;;;;11.07;7.35;;;;;;;;;;5014827;28;20129;-85
2021/12/30 04:51:30;;;;;;;12.93;8.95;;;;;;;;;;5013222;28;20077;-85
2021/12/30 04:53:56;;;;;;;12.88;9.93;;;;;;;;;;5016100;28;20065;-85
2021/12/30 04:56:22;;;;;;;12.48;9.10;;;;;;;;;;5015163;28;20034;-85
2021/12/30 04:58:48;;;;;;;14.68;10.68;;;;;;;;;;5002063;28;20117;-85
2021/12/30 05:01:14;;;;;;;13.10;9.55;;;;;;;;;;5016188;28;20057;-84
2021/12/30 05:03:40;;;;;;;14.90;7.53;;;;;;;;;;5014688;28;20431;-85
2021/12/30 05:06:06;;;;;;;12.20;9.55;;;;;;;;;;5014645;28;20033;-85
2021/12/30 05:08:33;;;;;;;13.73;8.80;;;;;;;;;;5013992;28;20104;-85
2021/12/30 05:10:59;;;;;;;10.98;7.32;;;;;;;;;;5010189;28;20388;-85
2021/12/30 05:13:26;;;;;;;9.20;6.60;;;;;;;;;;5015902;28;20033;-85
2021/12/30 05:15:52;;;;;;;11.52;7.85;;;;;;;;;;5014459;28;20057;-85
2021/12/30 05:18:20;;;;;;;14.13;8.55;;;;;;;;;;5014318;28;20104;-85
2021/12/30 05:20:46;;;;;;;12.95;8.15;;;;;;;;;;5014630;28;20380;-85
2021/12/30 05:23:13;;;;;;;12.43;8.10;;;;;;;;;;5015430;28;20034;-85
2021/12/30 05:25:39;;;;;;;10.80;6.85;;;;;;;;;;5014853;28;20484;-85
2021/12/30 05:28:05;;;;;;;7.95;4.45;;;;;;;;;;5014573;28;20361;-85
2021/12/30 05:30:31;;;;;;;8.38;4.60;;;;;;;;;;5014182;28;20034;-85
2021/12/30 05:32:57;;;;;;;9.43;5.97;;;;;;;;;;5014197;28;20073;-85
2021/12/30 05:35:24;;;;;;;12.13;6.18;;;;;;;;;;5013733;28;20022;-85
2021/12/30 05:37:50;;;;;;;9.43;5.30;;;;;;;;;;5014652;28;20037;-85
2021/12/30 05:40:18;;;;;;;8.10;5.97;;;;;;;;;;5014226;28;20041;-85
2021/12/30 05:42:44;;;;;;;9.65;5.65;;;;;;;;;;4996363;28;20105;-85
2021/12/30 05:45:11;;;;;;;10.52;7.43;;;;;;;;;;4994932;28;20520;-85
2021/12/30 05:47:37;;;;;;;16.05;7.13;;;;;;;;;;5012211;28;20037;-85
2021/12/30 05:50:04;;;;;;;16.67;8.02;;;;;;;;;;5015125;28;20034;-85
2021/12/30 05:52:30;;;;;;;11.65;7.50;;;;;;;;;;5013601;28;20080;-85
2021/12/30 05:54:56;;;;;;;16.35;11.25;;;;;;;;;;5014089;28;20041;-85
2021/12/30 05:57:22;;;;;;;11.77;8.38;;;;;;;;;;4997339;28;20035;-85
2021/12/30 05:59:48;;;;;;;11.93;7.00;;;;;;;;;;4994508;28;20412;-85
2021/12/30 06:02:15;;;;;;;9.27;5.72;;;;;;;;;;5011803;28;20057;-85
2021/12/30 06:04:41;;;;;;;13.05;7.90;;;;;;;;;;5013829;28;20038;-85
2021/12/30 06:07:08;;;;;;;12.15;8.57;;;;;;;;;;5013953;28;20044;-85
2021/12/30 06:09:34;;;;;;;8.65;5.82;;;;;;;;;;5013841;28;20038;-85
2021/12/30 06:12:00;;;;;;;12.35;8.57;;;;;;;;;;5014005;28;20104;-85
2021/12/30 06:14:26;;;;;;;14.48;9.13;;;;;;;;;;5012594;28;20650;-85
2021/12/30 06:16:52;;;;;;;18.27;11.00;;;;;;;;;;5014578;28;20120;-85
2021/12/30 06:19:18;;;;;;;14.50;9.57;;;;;;;;;;5002803;28;20068;-85
2021/12/30 06:21:44;;;;;;;12.15;8.68;;;;;;;;;;5013571;28;20034;-85
2021/12/30 06:24:10;;;;;;;14.07;10.25;;;;;;;;;;5000860;28;20440;-85
2021/12/30 06:26:36;;;;;;;26.27;19.25;;;;;;;;;;5013704;28;20419;-85
2021/12/30 06:29:03;;;;;;;11.55;7.03;;;;;;;;;;5014924;28;20037;-85
2021/12/30 06:31:29;;;;;;;12.30;8.52;;;;;;;;;;5013326;28;20627;-85
2021/12/30 06:33:55;;;;;;;11.60;7.70;;;;;;;;;;5013266;28;20161;-85
2021/12/30 06:36:21;;;;;;;12.38;8.43;;;;;;;;;;5001223;28;20069;-85
2021/12/30 06:38:48;;;;;;;14.60;9.60;;;;;;;;;;5012494;28;20080;-85
2021/12/30 06:41:14;;;;;;;12.20;8.18;;;;;;;;;;5014284;28;20036;-86
2021/12/30 06:43:41;;;;;;;11.88;7.32;;;;;;;;;;5012925;28;20034;-86
2021/12/30 06:46:09;;;;;;;18.98;12.98;;;;;;;;;;5013034;28;20033;-86
2021/12/30 06:48:35;;;;;;;20.98;14.85;;;;;;;;;;5012956;28;20026;-86
2021/12/30 06:51:04;;;;;;;12.90;8.82;;;;;;;;;;5012697;28;20064;-86
2021/12/30 06:53:30;;;;;;;15.15;8.65;;;;;;;;;;5012887;28;20076;-85
2021/12/30 06:55:56;;;;;;;14.65;9.88;;;;;;;;;;5007844;28;20100;-86
2021/12/30 06:58:23;;;;;;;15.40;9.88;;;;;;;;;;5011331;28;20037;-86
2021/12/30 07:00:50;;;;;;;15.32;9.30;;;;;;;;;;5011607;28;20033;-86
2021/12/30 07:03:16;;;;;;;14.40;9.43;;;;;;;;;;4996924;28;20050;-86
2021/12/30 07:05:42;;;;;;;12.15;8.82;;;;;;;;;;4993965;28;20029;-83
2021/12/30 07:08:08;;;;;;;11.23;7.88;;;;;;;;;;5009335;28;20849;-86
2021/12/30 07:10:34;;;;;;;13.95;8.63;;;;;;;;;;5005198;28;20029;-85
2021/12/30 07:13:00;;;;;;;16.95;10.57;;;;;;;;;;5010071;28;20077;-84
2021/12/30 07:15:26;;;;;;;28.25;23.77;;;;;;;;;;5005683;28;20042;-85
2021/12/30 07:17:52;;;;;;;15.07;10.65;;;;;;;;;;5009345;28;20084;-84
2021/12/30 07:20:18;;;;;;;15.10;11.20;;;;;;;;;;5010059;28;20076;-84
2021/12/30 07:22:44;;;;;;;11.48;7.90;;;;;;;;;;5012339;28;20065;-84
2021/12/30 07:25:16;;;;;;;13.77;7.45;;;;;;;;;;5010009;28;20069;-85
2021/12/30 07:27:42;;;;;;;15.95;9.68;;;;;;;;;;5012436;28;20476;-86
2021/12/30 07:30:09;;;;;;;14.15;9.85;;;;;;;;;;5016449;28;20483;-86
2021/12/30 07:32:35;;;;;;;22.55;11.13;;;;;;;;;;4998397;28;20029;-86
2021/12/30 07:35:01;;;;;;;16.85;12.85;;;;;;;;;;5012422;28;20028;-86
2021/12/30 07:37:27;;;;;;;16.90;10.68;;;;;;;;;;5000684;28;20676;-86
2021/12/30 07:39:53;;;;;;;14.68;9.32;;;;;;;;;;5013075;28;20072;-86
2021/12/30 07:42:19;;;;;;;61.08;46.38;;;;;;;;;;5011565;28;20072;-86
2021/12/30 07:44:45;;;;;;;13.95;9.13;;;;;;;;;;5010944;28;20041;-86
2021/12/30 07:47:11;;;;;;;12.25;9.52;;;;;;;;;;4997514;28;20038;-86
2021/12/30 07:49:37;;;;;;;12.85;7.70;;;;;;;;;;5011145;28;20141;-86
2021/12/30 07:52:07;;;;;;;14.48;10.15;;;;;;;;;;5008072;28;20145;-86
2021/12/30 07:54:33;;;;;;;13.70;7.88;;;;;;;;;;5010939;28;20026;-86
2021/12/30 07:57:00;;;;;;;16.58;10.35;;;;;;;;;;5006642;28;20121;-86
2021/12/30 07:59:27;;;;;;;16.55;11.73;;;;;;;;;;5006942;28;20096;-86
2021/12/30 08:01:53;;;;;;;16.23;10.40;;;;;;;;;;5010662;28;20085;-86
2021/12/30 08:04:19;;;;;;;17.55;11.40;;;;;;;;;;5011053;28;20041;-86
2021/12/30 08:06:45;;;;;;;18.75;13.32;;;;;;;;;;5003839;28;20030;-86
2021/12/30 08:09:11;;;;;;;18.00;14.00;;;;;;;;;;5010803;28;20049;-86
2021/12/30 08:11:37;;;;;;;18.67;14.88;;;;;;;;;;5009647;28;20033;-86
2021/12/30 08:14:03;;;;;;;19.67;15.52;;;;;;;;;;5001509;28;20036;-85
2021/12/30 08:16:29;;;;;;;24.77;19.50;;;;;;;;;;5010604;28;20034;-86
2021/12/30 08:18:56;;;;;;;41.53;31.85;;;;;;;;;;5010462;28;20500;-86
2021/12/30 08:21:22;;;;;;;48.85;38.95;;;;;;;;;;5010866;28;20048;-86
2021/12/30 08:23:51;;;;;;;42.80;33.38;;;;;;;;;;5011768;28;20041;-85
2021/12/30 08:26:17;;;;;;;38.70;29.77;;;;;;;;;;5015567;28;20179;-85
2021/12/30 08:28:43;;;;;;;28.90;22.95;;;;;;;;;;5014562;28;20580;-86
2021/12/30 08:31:09;;;;;;;18.75;14.55;;;;;;;;;;5009111;28;20044;-85
2021/12/30 08:33:35;;;;;;;23.58;14.68;;;;;;;;;;5014546;28;20384;-86
2021/12/30 08:36:01;;;;;;;24.02;18.23;;;;;;;;;;5013447;28;20030;-86
2021/12/30 08:38:27;;;;;;;25.65;20.63;;;;;;;;;;5014495;28;20105;-86
2021/12/30 08:40:53;;;;;;;24.55;17.70;;;;;;;;;;5015561;28;20026;-86
2021/12/30 08:43:19;;;;;;;19.95;13.52;;;;;;;;;;5014570;28;20036;-86
2021/12/30 08:45:46;;;;;;;18.08;11.57;;;;;;;;;;5013957;28;20041;-85
2021/12/30 08:48:12;;;;;;;18.02;12.50;;;;;;;;;;5013852;28;20069;-85
2021/12/30 08:50:39;;;;;;;15.35;10.13;;;;;;;;;;5014204;28;20034;-86
2021/12/30 08:53:05;;;;;;;17.25;12.73;;;;;;;;;;5025853;28;20095;-86
2021/12/30 08:55:31;;;;;;;83.28;39.78;;;;;;;;;;5014519;28;20384;-86
2021/12/30 08:57:58;;;;;;;73.00;35.83;;;;;;;;;;5011858;28;20456;-86
2021/12/30 09:00:25;;;;;;;59.70;31.02;;;;;;;;;;5014565;28;20053;-83
2021/12/30 09:02:52;;;;;;;53.83;29.58;;;;;;;;;;5010345;28;20447;-83
2021/12/30 09:05:18;;;;;;;41.95;24.50;;;;;;;;;;5014573;28;20395;-83
2021/12/30 09:07:44;;;;;;;33.33;21.83;;;;;;;;;;5014468;28;20034;-83
2021/12/30 09:10:11;;;;;;;30.60;19.33;;;;;;;;;;5014036;28;20183;-86
2021/12/30 09:12:37;;;;;;;33.58;21.58;;;;;;;;;;5014500;28;20033;-86
2021/12/30 09:15:05;;;;;;;49.63;32.80;;;;;;;;;;5002172;28;20034;-86
2021/12/30 09:17:31;;;;;;;44.22;29.15;;;;;;;;;;5013660;28;20030;-86
2021/12/30 09:19:57;;;;;;;43.13;30.02;;;;;;;;;;5011014;28;20161;-86
2021/12/30 09:22:23;;;;;;;42.30;30.88;;;;;;;;;;5007457;28;20030;-86
2021/12/30 09:24:50;;;;;;;37.25;25.55;;;;;;;;;;5009682;28;20065;-86
2021/12/30 09:27:16;;;;;;;37.05;23.65;;;;;;;;;;5013644;28;20109;-86
2021/12/30 09:29:42;;;;;;;30.58;23.30;;;;;;;;;;5001578;28;20064;-86
2021/12/30 09:32:08;;;;;;;36.55;26.55;;;;;;;;;;5011913;28;20069;-86
2021/12/30 09:34:34;;;;;;;27.50;21.15;;;;;;;;;;5006774;28;20412;-86
2021/12/30 09:37:01;;;;;;;26.88;21.92;;;;;;;;;;5009791;28;20030;-86
2021/12/30 09:39:27;;;;;;;32.05;23.60;;;;;;;;;;5023424;28;20465;-86
2021/12/30 09:41:53;;;;;;;34.15;24.77;;;;;;;;;;5010863;28;20996;-85
2021/12/30 09:44:21;;;;;;;25.10;20.00;;;;;;;;;;5007283;28;20038;-85
2021/12/30 09:46:47;;;;;;;24.48;19.88;;;;;;;;;;5006239;28;20073;-85
2021/12/30 09:49:17;;;;;;;22.98;18.02;;;;;;;;;;4996769;28;20468;-84
2021/12/30 09:51:43;;;;;;;23.73;17.65;;;;;;;;;;5010488;28;20053;-85
2021/12/30 09:54:09;;;;;;;21.55;15.68;;;;;;;;;;5012682;28;20746;-85
2021/12/30 09:56:35;;;;;;;17.70;14.13;;;;;;;;;;4996128;28;20021;-85
2021/12/30 09:59:01;;;;;;;20.85;14.45;;;;;;;;;;5006432;28;20030;-84
2021/12/30 10:01:27;;;;;;;14.77;11.25;;;;;;;;;;5006732;28;20041;-84
2021/12/30 10:03:57;;;;;;;15.13;11.00;;;;;;;;;;5007152;28;20041;-85
2021/12/30 10:06:24;;;;;;;14.57;11.68;;;;;;;;;;5009714;28;20038;-85
2021/12/30 10:09:13;;;;;;;17.00;13.32;;;;;;;;;;4992610;28;20038;-84
2021/12/30 10:11:43;;;;;;;17.08;13.05;;;;;;;;;;4992101;28;20033;-85
2021/12/30 10:14:09;;;;;;;13.60;11.15;;;;;;;;;;5005949;28;20061;-84
2021/12/30 10:16:35;;;;;;;20.17;8.98;;;;;;;;;;5007617;28;20508;-86
2021/12/30 10:19:05;;;;;;;11.30;8.13;;;;;;;;;;5008216;28;20125;-85
2021/12/30 10:21:35;;;;;;;15.48;9.75;;;;;;;;;;5014964;28;20106;-85
2021/12/30 10:24:03;;;;;;;12.40;8.63;;;;;;;;;;5009079;28;20056;-86
2021/12/30 10:26:29;;;;;;;16.92;12.32;;;;;;;;;;5006465;28;20065;-86
2021/12/30 10:28:59;;;;;;;14.57;9.85;;;;;;;;;;5009085;28;20029;-85
2021/12/30 10:31:27;;;;;;;14.57;9.55;;;;;;;;;;5009495;28;20038;-86
2021/12/30 10:34:00;;;;;;;15.50;9.85;;;;;;;;;;4995857;28;20141;-85
2021/12/30 10:36:28;;;;;;;15.32;11.85;;;;;;;;;;5009372;28;20361;-86
2021/12/30 10:38:55;;;;;;;19.27;12.52;;;;;;;;;;5009555;28;20034;-85
2021/12/30 10:41:22;;;;;;;17.65;10.23;;;;;;;;;;5010881;28;20041;-85
2021/12/30 10:43:51;;;;;;;19.27;10.93;;;;;;;;;;5009735;28;20148;-84
2021/12/30 10:46:26;;;;;;;14.85;8.32;;;;;;;;;;4998752;28;20060;-85
2021/12/30 10:48:53;;;;;;;13.57;8.30;;;;;;;;;;5010664;28;20040;-85
2021/12/30 10:51:24;;;;;;;9.88;6.10;;;;;;;;;;5009147;28;20061;-85
2021/12/30 10:53:52;;;;;;;13.05;4.40;;;;;;;;;;5009286;28;20049;-86
2021/12/30 10:56:21;;;;;;;8.55;4.18;;;;;;;;;;5006758;28;20032;-84
2021/12/30 10:58:47;;;;;;;7.38;4.40;;;;;;;;;;5007031;28;20073;-81
2021/12/30 11:01:18;;;;;;;7.55;3.97;;;;;;;;;;5008626;28;20110;-82
2021/12/30 11:04:00;;;;;;;6.78;2.75;;;;;;;;;;5008795;28;20149;-82
2021/12/30 11:06:26;;;;;;;;;;;;;;;;;;5008560;28;20064;-82
2021/12/30 11:09:09;;;;;;;5.45;2.60;;;;;;;;;;5004898;28;20012;-82
2021/12/30 11:11:36;;;;;;;5.60;2.60;;;;;;;;;;5007126;28;20037;-81
2021/12/30 11:14:06;;;;;;;5.57;3.25;;;;;;;;;;5008056;28;20029;-81
2021/12/30 11:16:34;;;;;;;8.20;3.70;;;;;;;;;;5005572;28;20097;-81
2021/12/30 11:19:00;;;;;;;6.90;3.10;;;;;;;;;;5009636;28;20145;-81
2021/12/30 11:21:35;;;;;;;8.65;2.95;;;;;;;;;;5010179;28;20056;-81
2021/12/30 11:24:02;;;;;;;5.22;2.00;;;;;;;;;;4982973;28;20042;-81
2021/12/30 11:26:28;;;;;;;4.72;2.00;;;;;;;;;;4990929;28;20023;-80
2021/12/30 11:28:55;;;;;;;4.25;2.28;;;;;;;;;;5001657;28;20695;-81
2021/12/30 11:31:21;;;;;;;5.75;2.50;;;;;;;;;;5007639;28;20030;-81
2021/12/30 11:33:47;;;;;;;6.40;2.22;;;;;;;;;;5009687;28;20076;-80
2021/12/30 11:36:16;;;;;;;6.38;2.08;;;;;;;;;;5009395;28;20064;-80
2021/12/30 11:38:42;;;;;;;6.68;3.00;;;;;;;;;;5009497;28;20034;-81
2021/12/30 11:41:16;;;;;;;5.93;2.80;;;;;;;;;;4983851;28;20034;-80
2021/12/30 11:43:43;;;;;;;7.68;2.60;;;;;;;;;;5007884;28;20487;-80
2021/12/30 11:46:29;;;;;;;6.30;2.50;;;;;;;;;;5009230;28;20034;-81
2021/12/30 11:48:57;;;;;;;5.18;2.25;;;;;;;;;;5008442;28;20052;-81
2021/12/30 11:51:23;;;;;;;5.03;2.38;;;;;;;;;;5009342;28;20113;-80
2021/12/30 11:53:52;;;;;;;5.28;2.38;;;;;;;;;;5009074;28;20045;-80
2021/12/30 11:56:22;;;;;;;4.90;2.35;;;;;;;;;;5007786;28;20037;-80
2021/12/30 11:58:52;;;;;;;6.15;1.80;;;;;;;;;;5009903;28;20030;-80
2021/12/30 12:01:19;;;;;;;7.50;2.00;;;;;;;;;;5014665;28;20029;-81
2021/12/30 12:03:54;;;;;;;4.15;1.63;;;;;;;;;;5013402;28;20117;-80
2021/12/30 12:06:27;;;;;;;7.00;1.92;;;;;;;;;;5016261;28;20030;-80
2021/12/30 12:08:54;;;;;;;3.42;1.33;;;;;;;;;;5013081;28;20489;-81
2021/12/30 12:11:24;;;;;;;4.32;1.90;;;;;;;;;;5007147;28;20376;-80
2021/12/30 12:13:53;;;;;;;4.35;1.33;;;;;;;;;;5012589;28;20046;-79
2021/12/30 12:16:55;;;;;;;6.32;2.03;;;;;;;;;;5013233;28;20087;-80
2021/12/30 12:19:22;;;;;;;4.07;1.73;;;;;;;;;;4926636;29;20115;-80
2021/12/30 12:21:50;;;;;;;5.10;2.00;;;;;;;;;;4994578;28;20415;-81
2021/12/30 12:24:22;;;;;;;3.75;1.40;;;;;;;;;;5013035;28;20049;-80
2021/12/30 12:26:48;;;;;;;;;;;;;;;;;;5013506;28;20037;-80
2021/12/30 12:29:33;;;;;;;3.95;1.17;;;;;;;;;;5013303;28;19913;-81
2021/12/30 12:32:05;;;;;;;5.78;1.20;;;;;;;;;;5013703;28;20472;-81
2021/12/30 12:34:34;;;;;;;4.70;0.95;;;;;;;;;;5012726;28;20708;-81
2021/12/30 12:37:00;;;;;;;3.25;0.85;;;;;;;;;;5013202;28;20039;-81
2021/12/30 12:39:33;;;;;;;3.88;1.40;;;;;;;;;;5012492;28;20511;-80
2021/12/30 12:41:59;;;;;;;6.00;1.33;;;;;;;;;;5009379;28;20045;-81
2021/12/30 12:44:25;;;;;;;4.15;1.48;;;;;;;;;;5013051;28;20026;-81
2021/12/30 12:46:52;;;;;;;7.47;2.30;;;;;;;;;;5013110;28;20034;-81
2021/12/30 12:49:41;;;;;;;6.22;2.38;;;;;;;;;;5013135;28;20044;-81
2021/12/30 12:52:07;;;;;;;5.72;2.38;;;;;;;;;;5007100;28;20049;-81
2021/12/30 12:54:38;;;;;;;7.85;1.85;;;;;;;;;;5012706;28;20124;-81
2021/12/30 12:57:05;;;;;;;4.40;1.07;;;;;;;;;;5013085;28;20022;-81
2021/12/30 12:59:35;;;;;;;2.67;1.08;;;;;;;;;;5012601;28;20844;-81
2021/12/30 13:02:01;;;;;;;5.57;1.65;;;;;;;;;;5013046;28;20030;-80
2021/12/30 13:04:27;;;;;;;4.43;1.42;;;;;;;;;;5013964;28;20083;-81
2021/12/30 13:06:53;;;;;;;5.30;1.52;;;;;;;;;;5011094;28;20040;-81
2021/12/30 13:09:21;;;;;;;9.07;2.90;;;;;;;;;;5011581;28;20080;-81
2021/12/30 13:11:50;;;;;;;5.30;2.10;;;;;;;;;;5006867;28;20030;-80
2021/12/30 13:14:16;;;;;;;6.90;2.78;;;;;;;;;;5015339;28;20416;-81
2021/12/30 13:16:42;;;;;;;5.55;1.67;;;;;;;;;;5012714;28;20499;-81
2021/12/30 13:19:11;;;;;;;4.45;1.73;;;;;;;;;;5010173;28;20057;-81
2021/12/30 13:21:38;;;;;;;6.05;2.25;;;;;;;;;;5012115;28;20464;-81
2021/12/30 13:24:04;;;;;;;6.40;2.70;;;;;;;;;;5012236;28;20037;-81
2021/12/30 13:26:37;;;;;;;4.43;1.90;;;;;;;;;;5012473;28;20061;-81
2021/12/30 13:29:03;;;;;;;;;;;;;;;;;;5005108;28;20073;-81
2021/12/30 13:31:31;;;;;;;11.77;6.20;;;;;;;;;;5012392;28;20314;-81
2021/12/30 13:34:01;;;;;;;10.38;6.68;;;;;;;;;;5011683;28;20037;-81
2021/12/30 13:36:28;;;;;;;22.33;14.23;;;;;;;;;;5010538;28;20061;-81
2021/12/30 13:38:54;;;;;;;44.45;26.73;;;;;;;;;;5011195;28;20084;-81
2021/12/30 13:41:22;;;;;;;47.58;26.50;;;;;;;;;;5004064;28;20073;-81
2021/12/30 13:43:48;;;;;;;26.20;14.77;;;;;;;;;;5010836;28;20465;-81
2021/12/30 13:46:16;;;;;;;24.77;15.25;;;;;;;;;;5007823;28;20037;-81
2021/12/30 13:48:44;;;;;;;28.20;18.33;;;;;;;;;;5010887;28;20065;-81
2021/12/30 13:51:24;;;;;;;18.83;10.55;;;;;;;;;;4996221;28;20037;-81
2021/12/30 13:53:50;;;;;;;19.08;9.98;;;;;;;;;;5008208;28;20784;-82
2021/12/30 13:56:20;;;;;;;19.83;9.82;;;;;;;;;;5011312;28;20026;-82
2021/12/30 13:58:46;;;;;;;25.77;14.32;;;;;;;;;;5004428;28;20493;-82
2021/12/30 14:01:15;;;;;;;36.85;21.30;;;;;;;;;;5011317;28;20022;-82
2021/12/30 14:03:43;;;;;;;23.45;14.02;;;;;;;;;;5012467;28;20033;-81
2021/12/30 14:06:13;;;;;;;17.38;11.55;;;;;;;;;;5010790;28;20495;-81
2021/12/30 14:08:48;;;;;;;25.77;17.42;;;;;;;;;;5010607;28;20061;-82
2021/12/30 14:23:38;;;;;;;21.13;14.13;;;;;;;;;;5092320;27;20753;-78
2021/12/30 14:26:12;;;;;;;13.98;9.32;;;;;;;;;;5064390;28;20036;-78
2021/12/30 14:28:45;;;;;;;10.30;6.75;;;;;;;;;;5071282;28;20032;-79
2021/12/30 14:31:18;;;;;;;13.60;7.38;;;;;;;;;;5068644;28;20509;-78
2021/12/30 14:33:44;;;;;;;17.30;12.05;;;;;;;;;;5066114;28;20569;-79
2021/12/30 14:36:12;;;;;;;14.25;9.73;;;;;;;;;;5062310;28;20400;-79
2021/12/30 14:38:39;;;;;;;12.18;7.57;;;;;;;;;;5062346;28;20099;-78
2021/12/30 14:41:08;;;;;;;18.17;10.43;;;;;;;;;;5063934;28;20509;-78
2021/12/30 14:43:34;;;;;;;13.80;9.18;;;;;;;;;;5060835;28;20052;-78